TimeEET,TemperatureF,Dew PointF,Humidity,Sea Level PressureIn,VisibilityMPH,Wind Direction,Wind SpeedMPH,Gust SpeedMPH,PrecipitationIn,Events,Conditions,WindDirDegrees,DateUTC
12:20 AM,23.0,21.2,93,30.04,6.2,West,6.9,-,N/A,,Scattered Clouds,260,2013-01-23 22:20:00
12:50 AM,26.6,26.6,100,30.04,6.2,SE,3.5,-,N/A,,Mostly Cloudy,130,2013-01-23 22:50:00
1:20 AM,24.8,24.8,100,30.04,6.2,Calm,Calm,-,N/A,,Mostly Cloudy,0,2013-01-23 23:20:00
1:50 AM,24.8,23.0,93,30.04,6.2,Variable,1.2,-,N/A,,Mostly Cloudy,0,2013-01-23 23:50:00
2:00 AM,24,24,100,,12,WNW,1.2,,,,Partly Cloudy,300,2013-01-24 00:00:00
2:20 AM,21.2,19.4,93,30.04,6.2,NNW,5.8,-,N/A,,Mostly Cloudy,340,2013-01-24 00:20:00
2:50 AM,24.8,23.0,93,30.04,6.2,West,5.8,-,N/A,,Mostly Cloudy,280,2013-01-24 00:50:00
3:20 AM,23.0,23.0,100,30.04,6.2,Variable,2.3,-,N/A,,Mostly Cloudy,0,2013-01-24 01:20:00
3:50 AM,26.6,24.8,93,30.04,6.2,SW,5.8,-,N/A,,Mostly Cloudy,220,2013-01-24 01:50:00
4:20 AM,26.6,24.8,93,30.04,6.2,West,8.1,-,N/A,,Mostly Cloudy,270,2013-01-24 02:20:00
4:50 AM,28.4,24.8,86,30.04,6.2,SW,3.5,-,N/A,,Mostly Cloudy,230,2013-01-24 02:50:00
5:20 AM,24.8,23.0,93,30.04,6.2,SSE,3.5,-,N/A,,Mostly Cloudy,150,2013-01-24 03:20:00
5:50 AM,21.2,21.2,100,30.04,6.2,Variable,1.2,-,N/A,,Mostly Cloudy,0,2013-01-24 03:50:00
6:20 AM,23.0,23.0,100,30.04,6.2,Variable,1.2,-,N/A,,Mostly Cloudy,0,2013-01-24 04:20:00
6:50 AM,21.2,21.2,100,30.06,6.2,Variable,2.3,-,N/A,,Mostly Cloudy,0,2013-01-24 04:50:00
7:20 AM,23.0,23.0,100,30.06,3.7,Variable,1.2,-,N/A,,Mostly Cloudy,0,2013-01-24 05:20:00
7:50 AM,21.2,17.6,86,30.06,3.7,South,3.5,-,N/A,,Mostly Cloudy,180,2013-01-24 05:50:00
8:00 AM,22,21,94,,4,SSE,4.6,,,,Mist,160,2013-01-24 06:00:00
8:20 AM,23.0,19.4,86,30.06,3.7,SE,3.5,-,N/A,,Mostly Cloudy,130,2013-01-24 06:20:00
8:50 AM,26.6,23.0,86,30.06,5.0,Variable,2.3,-,N/A,,Mostly Cloudy,0,2013-01-24 06:50:00
9:20 AM,30.2,24.8,80,30.09,5.6,Variable,2.3,-,N/A,,Mostly Cloudy,0,2013-01-24 07:20:00
9:50 AM,32.0,26.6,80,30.09,6.2,Variable,1.2,-,N/A,,Mostly Cloudy,0,2013-01-24 07:50:00
10:20 AM,32.0,26.6,80,30.09,6.2,West,4.6,-,N/A,,Mostly Cloudy,260,2013-01-24 08:20:00
10:50 AM,32.0,26.6,80,30.09,6.2,WSW,6.9,-,N/A,,Mostly Cloudy,250,2013-01-24 08:50:00
11:20 AM,33.8,28.4,81,30.06,6.2,West,12.7,-,N/A,Snow,Light Snow,270,2013-01-24 09:20:00
11:50 AM,32.0,30.2,93,30.06,6.2,West,13.8,-,N/A,Snow,Light Snow,270,2013-01-24 09:50:00
12:20 PM,33.8,30.2,87,30.06,6.2,West,13.8,-,N/A,,Mostly Cloudy,270,2013-01-24 10:20:00
12:50 PM,33.8,30.2,87,30.06,6.2,West,11.5,-,N/A,,Mostly Cloudy,270,2013-01-24 10:50:00
1:20 PM,33.8,30.2,87,30.06,6.2,West,10.4,-,N/A,,Mostly Cloudy,270,2013-01-24 11:20:00
1:50 PM,33.8,30.2,87,30.06,6.2,West,9.2,-,N/A,,Mostly Cloudy,280,2013-01-24 11:50:00
2:00 PM,33,30,82,,12,West,9.2,,,,Partly Cloudy,280,2013-01-24 12:00:00
2:20 PM,33.8,30.2,87,30.06,6.2,West,8.1,-,N/A,,Mostly Cloudy,280,2013-01-24 12:20:00
2:50 PM,33.8,30.2,87,30.06,6.2,West,6.9,-,N/A,,Mostly Cloudy,260,2013-01-24 12:50:00
3:20 PM,33.8,28.4,81,30.06,5.6,West,4.6,-,N/A,,Mostly Cloudy,260,2013-01-24 13:20:00
3:50 PM,32.0,28.4,87,30.06,5.6,ENE,3.5,-,N/A,,Mostly Cloudy,60,2013-01-24 13:50:00
4:20 PM,30.2,28.4,93,30.06,5.0,ENE,2.3,-,N/A,,Mostly Cloudy,60,2013-01-24 14:20:00
4:50 PM,28.4,28.4,100,30.06,4.3,Calm,Calm,-,N/A,,Mostly Cloudy,0,2013-01-24 14:50:00
5:20 PM,26.6,26.6,100,30.06,3.7,Variable,1.2,-,N/A,,Mostly Cloudy,0,2013-01-24 15:20:00
5:50 PM,26.6,26.6,100,30.06,5.0,Calm,Calm,-,N/A,,Mostly Cloudy,0,2013-01-24 15:50:00
6:20 PM,26.6,26.6,100,30.06,5.0,West,3.5,-,N/A,,Mostly Cloudy,280,2013-01-24 16:20:00
6:50 PM,30.2,26.6,86,30.06,5.6,West,5.8,-,N/A,,Mostly Cloudy,260,2013-01-24 16:50:00
7:20 PM,33.8,26.6,75,30.06,6.2,WSW,9.2,-,N/A,,Mostly Cloudy,250,2013-01-24 17:20:00
7:50 PM,30.2,26.6,86,30.06,6.2,WNW,4.6,-,N/A,,Mostly Cloudy,290,2013-01-24 17:50:00
8:00 PM,31,27,80,,12,WNW,3.5,,,,Partly Cloudy,290,2013-01-24 18:00:00
8:20 PM,32.0,26.6,80,30.06,6.2,West,10.4,-,N/A,,Mostly Cloudy,260,2013-01-24 18:20:00
8:50 PM,30.2,24.8,80,30.06,6.2,WSW,9.2,-,N/A,,Mostly Cloudy,250,2013-01-24 18:50:00
9:20 PM,28.4,23.0,80,30.06,6.2,West,10.4,-,N/A,,Mostly Cloudy,260,2013-01-24 19:20:00
9:50 PM,28.4,24.8,86,30.06,6.2,WNW,6.9,-,N/A,,Mostly Cloudy,290,2013-01-24 19:50:00
10:20 PM,24.8,23.0,93,30.06,6.2,WNW,8.1,-,N/A,,Mostly Cloudy,290,2013-01-24 20:20:00
10:50 PM,23.0,21.2,93,30.04,6.2,WNW,6.9,-,N/A,,Mostly Cloudy,300,2013-01-24 20:50:00
11:20 PM,23.0,21.2,93,30.04,6.2,Variable,2.3,-,N/A,,Mostly Cloudy,0,2013-01-24 21:20:00
11:50 PM,21.2,19.4,93,30.04,6.2,SE,2.3,-,N/A,,Mostly Cloudy,130,2013-01-24 21:50:00